sensor_id;sensor_type;location;lat;lon;timestamp;pressure;altitude;pressure_sealevel;temperature;humidity
59493;BME280;45497;43.996;22.876;2022-12-07T00:01:35;101400.75;;;8.41;62.53
59493;BME280;45497;43.996;22.876;2022-12-07T00:04:03;101397.41;;;8.39;61.99
59493;BME280;45497;43.996;22.876;2022-12-07T00:06:37;101396.00;;;8.35;62.89
59493;BME280;45497;43.996;22.876;2022-12-07T00:09:04;101394.47;;;8.33;63.14
59493;BME280;45497;43.996;22.876;2022-12-07T00:11:29;101388.25;;;8.44;62.57
59493;BME280;45497;43.996;22.876;2022-12-07T00:13:57;101387.44;;;8.43;62.26
59493;BME280;45497;43.996;22.876;2022-12-07T00:16:26;101390.19;;;8.51;61.80
59493;BME280;45497;43.996;22.876;2022-12-07T00:18:52;101389.09;;;8.54;61.93
59493;BME280;45497;43.996;22.876;2022-12-07T00:21:23;101395.75;;;8.58;62.30
59493;BME280;45497;43.996;22.876;2022-12-07T00:23:50;101391.44;;;8.67;61.44
59493;BME280;45497;43.996;22.876;2022-12-07T00:26:17;101401.19;;;8.66;61.91
59493;BME280;45497;43.996;22.876;2022-12-07T00:28:53;101390.47;;;8.58;61.67
59493;BME280;45497;43.996;22.876;2022-12-07T00:31:22;101395.59;;;8.50;61.86
59493;BME280;45497;43.996;22.876;2022-12-07T00:33:48;101392.81;;;8.41;62.12
59493;BME280;45497;43.996;22.876;2022-12-07T00:36:17;101396.31;;;8.42;62.57
59493;BME280;45497;43.996;22.876;2022-12-07T00:38:43;101395.59;;;8.50;62.06
59493;BME280;45497;43.996;22.876;2022-12-07T00:41:16;101390.34;;;8.59;62.39
59493;BME280;45497;43.996;22.876;2022-12-07T00:43:43;101393.81;;;8.60;61.97
59493;BME280;45497;43.996;22.876;2022-12-07T00:46:09;101405.06;;;8.62;61.56
59493;BME280;45497;43.996;22.876;2022-12-07T00:48:37;101399.66;;;8.44;62.34
59493;BME280;45497;43.996;22.876;2022-12-07T00:51:04;101387.38;;;8.23;62.47
59493;BME280;45497;43.996;22.876;2022-12-07T00:53:30;101383.63;;;8.26;62.97
59493;BME280;45497;43.996;22.876;2022-12-07T00:55:55;101369.31;;;8.29;62.57
59493;BME280;45497;43.996;22.876;2022-12-07T00:58:21;101367.94;;;8.34;62.57
59493;BME280;45497;43.996;22.876;2022-12-07T01:00:47;101363.66;;;8.43;62.29
59493;BME280;45497;43.996;22.876;2022-12-07T01:03:13;101365.72;;;8.49;62.20
59493;BME280;45497;43.996;22.876;2022-12-07T01:05:40;101355.56;;;8.54;62.33
59493;BME280;45497;43.996;22.876;2022-12-07T01:08:13;101352.22;;;8.52;62.32
59493;BME280;45497;43.996;22.876;2022-12-07T01:10:39;101347.22;;;8.59;61.74
59493;BME280;45497;43.996;22.876;2022-12-07T01:13:04;101347.47;;;8.66;62.33
59493;BME280;45497;43.996;22.876;2022-12-07T01:15:30;101354.16;;;8.70;61.49
59493;BME280;45497;43.996;22.876;2022-12-07T01:17:55;101360.00;;;8.73;61.54
59493;BME280;45497;43.996;22.876;2022-12-07T01:20:21;101364.44;;;8.73;61.54
59493;BME280;45497;43.996;22.876;2022-12-07T01:22:46;101357.50;;;8.72;61.91
59493;BME280;45497;43.996;22.876;2022-12-07T01:25:12;101356.81;;;8.70;61.65
59493;BME280;45497;43.996;22.876;2022-12-07T01:27:37;101357.66;;;8.51;61.83
59493;BME280;45497;43.996;22.876;2022-12-07T01:30:05;101343.59;;;8.31;62.80
59493;BME280;45497;43.996;22.876;2022-12-07T01:32:31;101341.38;;;8.36;62.85
59493;BME280;45497;43.996;22.876;2022-12-07T01:34:56;101344.16;;;8.44;62.46
59493;BME280;45497;43.996;22.876;2022-12-07T01:37:22;101340.56;;;8.45;62.43
59493;BME280;45497;43.996;22.876;2022-12-07T01:39:51;101346.25;;;8.50;62.58
59493;BME280;45497;43.996;22.876;2022-12-07T01:42:17;101345.56;;;8.48;62.07
59493;BME280;45497;43.996;22.876;2022-12-07T01:45:31;101350.00;;;8.48;62.23
59493;BME280;45497;43.996;22.876;2022-12-07T01:47:57;101346.13;;;8.52;61.94
59493;BME280;45497;43.996;22.876;2022-12-07T01:50:26;101339.56;;;8.46;62.28
59493;BME280;45497;43.996;22.876;2022-12-07T01:52:55;101350.69;;;8.50;62.10
59493;BME280;45497;43.996;22.876;2022-12-07T01:55:22;101346.81;;;8.54;62.13
59493;BME280;45497;43.996;22.876;2022-12-07T01:57:49;101339.81;;;8.33;62.19
59493;BME280;45497;43.996;22.876;2022-12-07T02:00:17;101341.78;;;8.31;62.62
59493;BME280;45497;43.996;22.876;2022-12-07T02:02:53;101330.38;;;8.31;62.46
59493;BME280;45497;43.996;22.876;2022-12-07T02:05:20;101324.13;;;8.32;62.93
59493;BME280;45497;43.996;22.876;2022-12-07T02:07:47;101334.59;;;8.43;62.72
59493;BME280;45497;43.996;22.876;2022-12-07T02:10:19;101342.91;;;8.58;62.10
59493;BME280;45497;43.996;22.876;2022-12-07T02:12:48;101327.19;;;8.66;62.07
59493;BME280;45497;43.996;22.876;2022-12-07T02:15:16;101321.50;;;8.61;62.09
59493;BME280;45497;43.996;22.876;2022-12-07T02:17:59;101317.47;;;8.47;62.43
59493;BME280;45497;43.996;22.876;2022-12-07T02:23:15;101320.53;;;8.42;62.88
59493;BME280;45497;43.996;22.876;2022-12-07T02:28:35;101321.88;;;8.37;62.56
59493;BME280;45497;43.996;22.876;2022-12-07T02:31:10;101312.19;;;8.47;62.85
59493;BME280;45497;43.996;22.876;2022-12-07T02:33:46;101317.47;;;8.47;62.63
59493;BME280;45497;43.996;22.876;2022-12-07T02:39:06;101312.72;;;8.51;61.90
59493;BME280;45497;43.996;22.876;2022-12-07T02:41:44;101315.09;;;8.34;62.63
59493;BME280;45497;43.996;22.876;2022-12-07T02:44:18;101309.94;;;8.42;62.19
59493;BME280;45497;43.996;22.876;2022-12-07T02:46:49;101296.59;;;8.54;62.19
59493;BME280;45497;43.996;22.876;2022-12-07T02:49:17;101291.59;;;8.51;62.47
59493;BME280;45497;43.996;22.876;2022-12-07T02:51:45;101281.44;;;8.46;62.68
59493;BME280;45497;43.996;22.876;2022-12-07T02:54:13;101284.78;;;8.38;62.76
59493;BME280;45497;43.996;22.876;2022-12-07T02:56:52;101283.81;;;8.39;62.25
59493;BME280;45497;43.996;22.876;2022-12-07T03:05:03;101288.13;;;8.50;62.47
59493;BME280;45497;43.996;22.876;2022-12-07T03:10:22;101263.63;;;8.38;62.70
59493;BME280;45497;43.996;22.876;2022-12-07T03:13:09;101263.94;;;8.26;62.41
59493;BME280;45497;43.996;22.876;2022-12-07T03:18:13;101272.00;;;8.44;62.48
59493;BME280;45497;43.996;22.876;2022-12-07T03:20:41;101270.03;;;8.55;62.32
59493;BME280;45497;43.996;22.876;2022-12-07T03:23:10;101270.72;;;8.57;62.17
59493;BME280;45497;43.996;22.876;2022-12-07T03:25:41;101264.22;;;8.52;62.42
59493;BME280;45497;43.996;22.876;2022-12-07T03:28:10;101262.94;;;8.46;62.30
59493;BME280;45497;43.996;22.876;2022-12-07T03:33:14;101272.97;;;8.42;62.43
59493;BME280;45497;43.996;22.876;2022-12-07T03:35:46;101264.91;;;8.54;62.23
59493;BME280;45497;43.996;22.876;2022-12-07T03:38:24;101257.22;;;8.60;62.02
59493;BME280;45497;43.996;22.876;2022-12-07T03:41:40;101261.94;;;8.57;62.34
59493;BME280;45497;43.996;22.876;2022-12-07T03:43:46;101255.88;;;8.47;62.38
59493;BME280;45497;43.996;22.876;2022-12-07T03:46:51;101251.41;;;8.47;62.61
59493;BME280;45497;43.996;22.876;2022-12-07T03:49:27;101249.88;;;8.54;62.28
59493;BME280;45497;43.996;22.876;2022-12-07T03:54:41;101260.41;;;8.64;62.13
59493;BME280;45497;43.996;22.876;2022-12-07T03:57:10;101258.88;;;8.61;62.17
59493;BME280;45497;43.996;22.876;2022-12-07T03:59:38;101253.06;;;8.58;62.48
59493;BME280;45497;43.996;22.876;2022-12-07T04:02:06;101252.22;;;8.57;62.03
59493;BME280;45497;43.996;22.876;2022-12-07T04:04:32;101264.75;;;8.55;62.54
59493;BME280;45497;43.996;22.876;2022-12-07T04:06:58;101266.13;;;8.59;62.39
59493;BME280;45497;43.996;22.876;2022-12-07T04:09:24;101275.16;;;8.67;62.05
59493;BME280;45497;43.996;22.876;2022-12-07T04:11:49;101286.13;;;8.62;61.46
59493;BME280;45497;43.996;22.876;2022-12-07T04:14:15;101293.56;;;8.49;61.95
59493;BME280;45497;43.996;22.876;2022-12-07T04:16:44;101290.91;;;8.49;62.49
59493;BME280;45497;43.996;22.876;2022-12-07T04:19:10;101302.13;;;8.60;61.77
59493;BME280;45497;43.996;22.876;2022-12-07T04:21:35;101290.06;;;8.58;61.82
59493;BME280;45497;43.996;22.876;2022-12-07T04:24:01;101291.00;;;8.57;61.65
59493;BME280;45497;43.996;22.876;2022-12-07T04:26:26;101288.91;;;8.60;61.91
59493;BME280;45497;43.996;22.876;2022-12-07T04:28:52;101283.81;;;8.59;62.21
59493;BME280;45497;43.996;22.876;2022-12-07T04:31:17;101273.78;;;8.63;61.89
59493;BME280;45497;43.996;22.876;2022-12-07T04:33:43;101260.03;;;8.59;62.74
59493;BME280;45497;43.996;22.876;2022-12-07T04:36:08;101263.50;;;8.59;62.51
59493;BME280;45497;43.996;22.876;2022-12-07T04:38:34;101258.06;;;8.61;62.25
59493;BME280;45497;43.996;22.876;2022-12-07T04:41:07;101239.84;;;8.58;62.27
59493;BME280;45497;43.996;22.876;2022-12-07T04:43:34;101243.91;;;8.52;62.52
59493;BME280;45497;43.996;22.876;2022-12-07T04:45:59;101247.50;;;8.41;62.54
59493;BME280;45497;43.996;22.876;2022-12-07T04:48:25;101249.75;;;8.46;62.69
59493;BME280;45497;43.996;22.876;2022-12-07T04:50:50;101252.78;;;8.41;63.25
59493;BME280;45497;43.996;22.876;2022-12-07T04:53:16;101248.38;;;8.42;63.06
59493;BME280;45497;43.996;22.876;2022-12-07T04:55:41;101243.63;;;8.46;62.33
59493;BME280;45497;43.996;22.876;2022-12-07T04:58:07;101252.94;;;8.50;62.90
59493;BME280;45497;43.996;22.876;2022-12-07T05:00:32;101257.53;;;8.48;62.57
59493;BME280;45497;43.996;22.876;2022-12-07T05:02:58;101255.44;;;8.41;62.61
59493;BME280;45497;43.996;22.876;2022-12-07T05:05:23;101252.94;;;8.50;62.73
59493;BME280;45497;43.996;22.876;2022-12-07T05:07:50;101244.31;;;8.48;62.50
59493;BME280;45497;43.996;22.876;2022-12-07T05:10:15;101238.22;;;8.37;62.84
59493;BME280;45497;43.996;22.876;2022-12-07T05:12:41;101233.47;;;8.31;62.70
59493;BME280;45497;43.996;22.876;2022-12-07T05:15:07;101229.47;;;8.17;63.04
59493;BME280;45497;43.996;22.876;2022-12-07T05:17:33;101228.53;;;7.99;63.84
59493;BME280;45497;43.996;22.876;2022-12-07T05:19:58;101237.56;;;7.96;64.18
59493;BME280;45497;43.996;22.876;2022-12-07T05:22:24;101247.41;;;8.04;63.79
59493;BME280;45497;43.996;22.876;2022-12-07T05:24:54;101242.97;;;8.14;63.78
59493;BME280;45497;43.996;22.876;2022-12-07T05:27:20;101246.72;;;8.21;63.45
59493;BME280;45497;43.996;22.876;2022-12-07T05:29:45;101257.13;;;8.33;63.03
59493;BME280;45497;43.996;22.876;2022-12-07T05:32:11;101252.69;;;8.23;63.00
59493;BME280;45497;43.996;22.876;2022-12-07T05:34:36;101243.94;;;8.23;63.16
59493;BME280;45497;43.996;22.876;2022-12-07T05:37:02;101239.91;;;8.29;63.39
59493;BME280;45497;43.996;22.876;2022-12-07T05:39:27;101231.56;;;8.43;63.20
59493;BME280;45497;43.996;22.876;2022-12-07T05:41:53;101231.56;;;8.43;63.09
59493;BME280;45497;43.996;22.876;2022-12-07T05:44:36;101233.47;;;8.41;63.06
59493;BME280;45497;43.996;22.876;2022-12-07T05:47:02;101242.34;;;8.50;62.82
59493;BME280;45497;43.996;22.876;2022-12-07T05:49:28;101247.81;;;8.48;62.16
59493;BME280;45497;43.996;22.876;2022-12-07T05:51:53;101250.88;;;8.44;62.82
59493;BME280;45497;43.996;22.876;2022-12-07T05:54:19;101234.59;;;8.48;62.72
59493;BME280;45497;43.996;22.876;2022-12-07T05:56:44;101233.19;;;8.54;62.44
59493;BME280;45497;43.996;22.876;2022-12-07T05:59:10;101244.19;;;8.49;62.40
59493;BME280;45497;43.996;22.876;2022-12-07T06:01:58;101231.38;;;8.54;62.59
59493;BME280;45497;43.996;22.876;2022-12-07T06:04:26;101228.44;;;8.57;62.60
59493;BME280;45497;43.996;22.876;2022-12-07T06:06:52;101235.84;;;8.54;62.46
59493;BME280;45497;43.996;22.876;2022-12-07T06:09:19;101239.84;;;8.58;62.61
59493;BME280;45497;43.996;22.876;2022-12-07T06:11:44;101222.31;;;8.57;62.65
59493;BME280;45497;43.996;22.876;2022-12-07T06:14:29;101222.16;;;8.58;62.84
59493;BME280;45497;43.996;22.876;2022-12-07T06:16:54;101230.00;;;8.50;62.71
59493;BME280;45497;43.996;22.876;2022-12-07T06:19:20;101229.72;;;8.44;62.74
59493;BME280;45497;43.996;22.876;2022-12-07T06:21:45;101229.16;;;8.40;62.93
59493;BME280;45497;43.996;22.876;2022-12-07T06:24:12;101230.97;;;8.39;63.20
59493;BME280;45497;43.996;22.876;2022-12-07T06:26:38;101221.53;;;8.47;62.67
59493;BME280;45497;43.996;22.876;2022-12-07T06:29:03;101226.25;;;8.43;62.78
59493;BME280;45497;43.996;22.876;2022-12-07T06:31:29;101225.00;;;8.47;62.55
59493;BME280;45497;43.996;22.876;2022-12-07T06:34:02;101232.75;;;8.58;62.59
59493;BME280;45497;43.996;22.876;2022-12-07T06:36:28;101223.16;;;8.57;62.13
59493;BME280;45497;43.996;22.876;2022-12-07T06:38:54;101229.31;;;8.48;62.84
59493;BME280;45497;43.996;22.876;2022-12-07T06:41:20;101235.03;;;8.44;63.00
59493;BME280;45497;43.996;22.876;2022-12-07T06:43:45;101216.66;;;8.42;63.22
59493;BME280;45497;43.996;22.876;2022-12-07T06:46:11;101227.47;;;8.39;62.97
59493;BME280;45497;43.996;22.876;2022-12-07T06:48:36;101235.25;;;8.40;63.25
59493;BME280;45497;43.996;22.876;2022-12-07T06:51:02;101242.22;;;8.41;63.00
59493;BME280;45497;43.996;22.876;2022-12-07T06:53:27;101245.59;;;8.44;63.38
59493;BME280;45497;43.996;22.876;2022-12-07T06:55:53;101239.72;;;8.50;63.36
59493;BME280;45497;43.996;22.876;2022-12-07T06:58:18;101235.84;;;8.44;63.17
59493;BME280;45497;43.996;22.876;2022-12-07T07:00:44;101240.69;;;8.39;63.55
59493;BME280;45497;43.996;22.876;2022-12-07T07:03:10;101242.53;;;8.29;63.91
59493;BME280;45497;43.996;22.876;2022-12-07T07:05:36;101241.13;;;8.24;63.74
59493;BME280;45497;43.996;22.876;2022-12-07T07:08:01;101242.25;;;8.22;63.62
59493;BME280;45497;43.996;22.876;2022-12-07T07:10:28;101245.75;;;8.13;63.96
59493;BME280;45497;43.996;22.876;2022-12-07T07:12:53;101251.16;;;8.11;64.08
59493;BME280;45497;43.996;22.876;2022-12-07T07:15:19;101251.16;;;8.11;63.83
59493;BME280;45497;43.996;22.876;2022-12-07T07:17:44;101245.75;;;8.03;64.16
59493;BME280;45497;43.996;22.876;2022-12-07T07:20:10;101259.50;;;8.16;63.74
59493;BME280;45497;43.996;22.876;2022-12-07T07:22:37;101259.38;;;8.18;63.71
59493;BME280;45497;43.996;22.876;2022-12-07T07:25:03;101250.19;;;8.22;63.70
59493;BME280;45497;43.996;22.876;2022-12-07T07:27:29;101247.69;;;8.20;64.10
59493;BME280;45497;43.996;22.876;2022-12-07T07:29:54;101243.78;;;8.24;63.43
59493;BME280;45497;43.996;22.876;2022-12-07T07:32:20;101247.97;;;8.27;63.56
59493;BME280;45497;43.996;22.876;2022-12-07T07:34:47;101251.69;;;8.24;63.55
59493;BME280;45497;43.996;22.876;2022-12-07T07:37:12;101233.66;;;8.20;63.79
59493;BME280;45497;43.996;22.876;2022-12-07T07:39:38;101244.63;;;8.15;63.67
59493;BME280;45497;43.996;22.876;2022-12-07T07:42:04;101246.47;;;8.05;64.48
59493;BME280;45497;43.996;22.876;2022-12-07T07:44:29;101251.03;;;8.13;64.35
59493;BME280;45497;43.996;22.876;2022-12-07T07:46:55;101239.78;;;8.11;64.03
59493;BME280;45497;43.996;22.876;2022-12-07T07:49:20;101238.38;;;8.07;64.39
59493;BME280;45497;43.996;22.876;2022-12-07T07:51:46;101236.31;;;8.00;63.93
59493;BME280;45497;43.996;22.876;2022-12-07T07:54:11;101249.78;;;8.07;63.76
59493;BME280;45497;43.996;22.876;2022-12-07T07:56:37;101256.72;;;8.08;64.27
59493;BME280;45497;43.996;22.876;2022-12-07T07:59:02;101247.00;;;8.18;63.69
59493;BME280;45497;43.996;22.876;2022-12-07T08:01:28;101246.28;;;8.26;63.51
59493;BME280;45497;43.996;22.876;2022-12-07T08:03:53;101250.72;;;8.26;63.69
59493;BME280;45497;43.996;22.876;2022-12-07T08:06:19;101247.69;;;8.20;63.59
59493;BME280;45497;43.996;22.876;2022-12-07T08:08:44;101247.94;;;8.17;63.84
59493;BME280;45497;43.996;22.876;2022-12-07T08:11:10;101243.41;;;8.00;63.89
59493;BME280;45497;43.996;22.876;2022-12-07T08:13:36;101246.03;;;8.00;64.04
59493;BME280;45497;43.996;22.876;2022-12-07T08:16:07;101248.00;;;7.98;64.26
59493;BME280;45497;43.996;22.876;2022-12-07T08:18:38;101253.97;;;8.00;64.23
59493;BME280;45497;43.996;22.876;2022-12-07T08:21:06;101251.75;;;7.85;64.12
59493;BME280;45497;43.996;22.876;2022-12-07T08:23:31;101257.28;;;7.82;64.63
59493;BME280;45497;43.996;22.876;2022-12-07T08:26:02;101254.53;;;7.74;64.82
59493;BME280;45497;43.996;22.876;2022-12-07T08:28:28;101260.38;;;7.78;64.85
59493;BME280;45497;43.996;22.876;2022-12-07T08:33:27;101249.09;;;7.85;64.49
59493;BME280;45497;43.996;22.876;2022-12-07T08:35:52;101256.03;;;7.96;64.70
59493;BME280;45497;43.996;22.876;2022-12-07T08:38:18;101249.78;;;7.97;64.70
59493;BME280;45497;43.996;22.876;2022-12-07T08:40:43;101246.59;;;7.94;64.74
59493;BME280;45497;43.996;22.876;2022-12-07T08:43:09;101261.19;;;7.88;64.92
59493;BME280;45497;43.996;22.876;2022-12-07T08:45:34;101253.81;;;7.92;64.64
59493;BME280;45497;43.996;22.876;2022-12-07T08:48:07;101257.56;;;7.89;64.84
59493;BME280;45497;43.996;22.876;2022-12-07T08:50:36;101253.94;;;7.90;65.13
59493;BME280;45497;43.996;22.876;2022-12-07T08:53:03;101252.16;;;7.91;65.03
59493;BME280;45497;43.996;22.876;2022-12-07T08:55:30;101243.13;;;7.83;64.81
59493;BME280;45497;43.996;22.876;2022-12-07T08:57:58;101246.03;;;7.90;65.04
59493;BME280;45497;43.996;22.876;2022-12-07T09:00:24;101238.53;;;7.95;64.69
59493;BME280;45497;43.996;22.876;2022-12-07T09:02:49;101238.66;;;7.94;64.83
59493;BME280;45497;43.996;22.876;2022-12-07T09:05:15;101229.22;;;8.01;64.68
59493;BME280;45497;43.996;22.876;2022-12-07T09:07:42;101225.88;;;7.99;64.73
59493;BME280;45497;43.996;22.876;2022-12-07T09:10:08;101219.75;;;8.08;64.91
59493;BME280;45497;43.996;22.876;2022-12-07T09:12:34;101203.97;;;7.89;65.09
59493;BME280;45497;43.996;22.876;2022-12-07T09:14:59;101205.88;;;7.87;64.98
59493;BME280;45497;43.996;22.876;2022-12-07T09:17:26;101200.06;;;7.93;64.93
59493;BME280;45497;43.996;22.876;2022-12-07T09:19:51;101193.25;;;7.90;65.12
59493;BME280;45497;43.996;22.876;2022-12-07T09:22:17;101180.88;;;8.00;65.02
59493;BME280;45497;43.996;22.876;2022-12-07T09:24:43;101180.00;;;8.10;64.98
59493;BME280;45497;43.996;22.876;2022-12-07T09:27:10;101189.19;;;8.06;64.87
59493;BME280;45497;43.996;22.876;2022-12-07T09:29:36;101180.44;;;8.05;65.06
59493;BME280;45497;43.996;22.876;2022-12-07T09:32:02;101182.78;;;8.08;64.61
59493;BME280;45497;43.996;22.876;2022-12-07T09:34:30;101180.00;;;8.19;64.70
59493;BME280;45497;43.996;22.876;2022-12-07T09:36:57;101177.47;;;8.28;64.50
59493;BME280;45497;43.996;22.876;2022-12-07T09:39:23;101174.63;;;8.39;64.47
59493;BME280;45497;43.996;22.876;2022-12-07T09:41:49;101167.84;;;8.46;64.37
59493;BME280;45497;43.996;22.876;2022-12-07T09:44:21;101179.81;;;8.50;64.07
59493;BME280;45497;43.996;22.876;2022-12-07T09:46:48;101181.72;;;8.58;64.43
59493;BME280;45497;43.996;22.876;2022-12-07T09:49:18;101174.72;;;8.67;64.07
59493;BME280;45497;43.996;22.876;2022-12-07T09:51:44;101165.56;;;8.61;63.88
59493;BME280;45497;43.996;22.876;2022-12-07T09:54:15;101174.47;;;8.60;64.25
59493;BME280;45497;43.996;22.876;2022-12-07T09:56:41;101160.16;;;8.63;63.94
59493;BME280;45497;43.996;22.876;2022-12-07T09:59:13;101164.28;;;8.65;64.34
59493;BME280;45497;43.996;22.876;2022-12-07T10:01:42;101153.91;;;8.54;64.16
59493;BME280;45497;43.996;22.876;2022-12-07T10:04:15;101153.25;;;8.52;63.97
59493;BME280;45497;43.996;22.876;2022-12-07T10:06:42;101143.22;;;8.55;63.90
59493;BME280;45497;43.996;22.876;2022-12-07T10:09:12;101137.94;;;8.46;64.48
59493;BME280;45497;43.996;22.876;2022-12-07T10:12:03;101142.19;;;8.66;64.42
59493;BME280;45497;43.996;22.876;2022-12-07T10:14:31;101139.34;;;8.77;63.73
59493;BME280;45497;43.996;22.876;2022-12-07T10:16:57;101135.00;;;8.76;63.64
59493;BME280;45497;43.996;22.876;2022-12-07T10:19:28;101139.59;;;8.84;63.71
59493;BME280;45497;43.996;22.876;2022-12-07T10:24:37;101117.91;;;8.80;63.61
59493;BME280;45497;43.996;22.876;2022-12-07T10:27:05;101115.00;;;8.74;63.72
59493;BME280;45497;43.996;22.876;2022-12-07T10:29:48;101115.97;;;8.73;63.90
59493;BME280;45497;43.996;22.876;2022-12-07T10:34:41;101110.41;;;8.76;63.79
59493;BME280;45497;43.996;22.876;2022-12-07T10:39:48;101114.50;;;8.60;63.78
59493;BME280;45497;43.996;22.876;2022-12-07T10:42:21;101111.00;;;8.70;63.95
59493;BME280;45497;43.996;22.876;2022-12-07T10:44:48;101116.91;;;8.82;63.81
59493;BME280;45497;43.996;22.876;2022-12-07T10:47:34;101119.50;;;8.91;63.32
59493;BME280;45497;43.996;22.876;2022-12-07T11:03:52;101108.69;;;9.03;63.03
59493;BME280;45497;43.996;22.876;2022-12-07T11:06:36;101102.50;;;9.12;62.69
59493;BME280;45497;43.996;22.876;2022-12-07T11:12:25;101092.84;;;9.21;62.66
59493;BME280;45497;43.996;22.876;2022-12-07T11:14:56;101096.94;;;9.15;62.50
59493;BME280;45497;43.996;22.876;2022-12-07T11:25:49;101085.44;;;9.24;62.40
59493;BME280;45497;43.996;22.876;2022-12-07T11:28:35;101080.81;;;9.26;62.17
59493;BME280;45497;43.996;22.876;2022-12-07T11:39:15;101069.22;;;9.27;62.66
59493;BME280;45497;43.996;22.876;2022-12-07T11:41:48;101081.34;;;9.30;62.12
59493;BME280;45497;43.996;22.876;2022-12-07T11:46:58;101083.31;;;9.28;62.08
59493;BME280;45497;43.996;22.876;2022-12-07T11:52:30;101087.53;;;9.38;61.76
59493;BME280;45497;43.996;22.876;2022-12-07T11:55:01;101074.50;;;9.45;61.62
59493;BME280;45497;43.996;22.876;2022-12-07T11:57:37;101068.69;;;9.42;61.73
59493;BME280;45497;43.996;22.876;2022-12-07T12:00:08;101073.91;;;9.51;61.77
59493;BME280;45497;43.996;22.876;2022-12-07T12:02:46;101071.63;;;9.56;60.91
59493;BME280;45497;43.996;22.876;2022-12-07T12:05:19;101061.19;;;9.55;60.80
59493;BME280;45497;43.996;22.876;2022-12-07T12:07:52;101059.22;;;9.57;61.45
59493;BME280;45497;43.996;22.876;2022-12-07T12:21:47;101062.91;;;9.64;60.45
59493;BME280;45497;43.996;22.876;2022-12-07T12:24:25;101061.56;;;9.60;60.52
59493;BME280;45497;43.996;22.876;2022-12-07T12:27:23;101063.22;;;9.61;60.89
59493;BME280;45497;43.996;22.876;2022-12-07T12:29:53;101064.38;;;9.59;60.49
59493;BME280;45497;43.996;22.876;2022-12-07T12:32:22;101053.38;;;9.71;60.28
59493;BME280;45497;43.996;22.876;2022-12-07T12:42:58;101061.59;;;9.68;60.31
59493;BME280;45497;43.996;22.876;2022-12-07T12:45:28;101057.41;;;9.57;59.80
59493;BME280;45497;43.996;22.876;2022-12-07T12:48:02;101055.31;;;9.43;60.40
59493;BME280;45497;43.996;22.876;2022-12-07T12:50:36;101072.47;;;9.39;60.64
59493;BME280;45497;43.996;22.876;2022-12-07T12:58:34;101063.19;;;9.35;60.39
59493;BME280;45497;43.996;22.876;2022-12-07T13:01:33;101064.91;;;9.44;60.36
59493;BME280;45497;43.996;22.876;2022-12-07T13:04:02;101066.13;;;9.50;60.47
59493;BME280;45497;43.996;22.876;2022-12-07T13:06:36;101065.97;;;9.51;60.09
59493;BME280;45497;43.996;22.876;2022-12-07T13:09:03;101067.84;;;9.59;60.09
59493;BME280;45497;43.996;22.876;2022-12-07T13:11:36;101058.84;;;9.52;60.00
59493;BME280;45497;43.996;22.876;2022-12-07T13:17:08;101062.75;;;9.22;60.73
59493;BME280;45497;43.996;22.876;2022-12-07T13:25:17;101053.00;;;9.22;60.92
59493;BME280;45497;43.996;22.876;2022-12-07T13:27:54;101045.75;;;9.24;60.54
59493;BME280;45497;43.996;22.876;2022-12-07T13:30:22;101057.84;;;9.27;60.61
59493;BME280;45497;43.996;22.876;2022-12-07T13:32:55;101049.09;;;9.08;60.74
59493;BME280;45497;43.996;22.876;2022-12-07T13:35:34;101062.59;;;9.05;60.82
59493;BME280;45497;43.996;22.876;2022-12-07T13:38:33;101049.22;;;9.07;61.27
59493;BME280;45497;43.996;22.876;2022-12-07T13:41:03;101050.44;;;9.12;61.21
59493;BME280;45497;43.996;22.876;2022-12-07T13:43:29;101050.00;;;9.17;60.88
59493;BME280;45497;43.996;22.876;2022-12-07T13:45:58;101053.53;;;9.26;60.88
59493;BME280;45497;43.996;22.876;2022-12-07T13:48:43;101064.13;;;9.26;61.09
59493;BME280;45497;43.996;22.876;2022-12-07T13:51:17;101067.44;;;9.10;60.96
59493;BME280;45497;43.996;22.876;2022-12-07T13:53:54;101053.03;;;9.04;61.12
59493;BME280;45497;43.996;22.876;2022-12-07T13:56:28;101051.72;;;9.08;60.67
59493;BME280;45497;43.996;22.876;2022-12-07T13:58:56;101054.75;;;9.13;60.83
59493;BME280;45497;43.996;22.876;2022-12-07T14:01:22;101053.09;;;9.12;61.28
59493;BME280;45497;43.996;22.876;2022-12-07T14:03:49;101063.81;;;9.11;61.14
59493;BME280;45497;43.996;22.876;2022-12-07T14:06:22;101056.41;;;9.14;60.51
59493;BME280;45497;43.996;22.876;2022-12-07T14:08:51;101056.34;;;9.24;60.47
59493;BME280;45497;43.996;22.876;2022-12-07T14:11:30;101050.38;;;9.22;60.61
59493;BME280;45497;43.996;22.876;2022-12-07T14:13:59;101057.84;;;9.27;60.93
59493;BME280;45497;43.996;22.876;2022-12-07T14:16:34;101045.22;;;9.21;60.77
59493;BME280;45497;43.996;22.876;2022-12-07T14:19:05;101040.47;;;9.24;60.61
59493;BME280;45497;43.996;22.876;2022-12-07T14:21:33;101053.84;;;9.23;60.62
59493;BME280;45497;43.996;22.876;2022-12-07T14:26:38;101060.94;;;9.22;60.77
59493;BME280;45497;43.996;22.876;2022-12-07T14:31:53;101055.56;;;9.14;61.20
59493;BME280;45497;43.996;22.876;2022-12-07T14:34:20;101051.81;;;9.16;60.81
59493;BME280;45497;43.996;22.876;2022-12-07T14:36:46;101050.13;;;9.15;60.96
59493;BME280;45497;43.996;22.876;2022-12-07T14:39:12;101055.00;;;9.20;60.78
59493;BME280;45497;43.996;22.876;2022-12-07T14:41:37;101050.97;;;9.16;60.50
59493;BME280;45497;43.996;22.876;2022-12-07T14:44:22;101056.41;;;9.14;60.27
59493;BME280;45497;43.996;22.876;2022-12-07T14:46:49;101052.16;;;9.22;60.43
59493;BME280;45497;43.996;22.876;2022-12-07T14:49:15;101056.78;;;9.19;60.10
59493;BME280;45497;43.996;22.876;2022-12-07T14:51:42;101062.75;;;9.22;60.28
59493;BME280;45497;43.996;22.876;2022-12-07T14:54:15;101077.16;;;9.27;60.68